Memorial Field
KHOT : now visible

Airfield :











YOU CAN JOIN US ON...

 
LOGIN :

Register | Disclaimer

   EN    FR    IT 

 









Legend :    VFR   Marginal VFR   IFR   Intensive IFR   Very Intensive IFR
Visi :
Ceiling :
>= 8 km
>= 3000ft
5 to 8 km
1000 to 3000 ft
1500m to 5 km
500 to 1000 ft
800 to 1500m
200 to 500 ft
< 800m
< 200 ft
Symbols :   Thunderstorms  Fog  Heavy snow  Heavy precipitations  Wind > 20 kt






- Airport Elevation : 540 ft
- IATA code : HOT


KHOT - Memorial Field

CURRENT METAR :
  • 152253Z AUTO 29011G25KT 10SM OVC080 07/M07 A2985 RMK AO2 PK WND 28026/2242 SLP109 T00671072

EXPIRED METARs :
  • 152153Z AUTO 30011G23KT 280V350 10SM OVC080 07/M08 A2984 RMK AO2 SLP105 T00721078
  • 152053Z AUTO 29007G15KT 10SM BKN075 OVC090 08/M07 A2982 RMK AO2 PK WND 29028/1956 SLP098 T00781072 53001

TAF KHOT
Valid from the 15 at 20:00 until the 16 at 18:00 UTC


151940Z 1520/1618 31017G25KT P6SM BKN050 OVC100
FM160100 29008KT P6SM SCT060 SCT250
KZME FIR / North America



MET'MAP, your aeronautical weather chart ! - Copyright ORBIFLY December 2007 - Disclaimer

ORBIFLY MET'MAP TEAM :

Programming & Development : Alexandra Zaïnal
Concept & original design : Baudouin d'Aumeries
Assistance for programming : Marc-Olivier Méhu
Technical & hardware support : Manuel Goepfert

Contact : metmap@orbifly.com




SOURCES & CREDITS :

   NOAA       Earth
Advisory